createdAt,value
2019-04-25T00:02:24.961Z,13.53
2019-04-25T00:04:56.526Z,13.54
2019-04-25T00:07:28.133Z,13.54
2019-04-25T00:10:01.611Z,13.51
2019-04-25T00:12:33.267Z,13.46
2019-04-25T00:15:07.096Z,13.47
2019-04-25T00:17:38.734Z,13.50
2019-04-25T00:20:11.389Z,13.41
2019-04-25T00:22:47.577Z,13.52
2019-04-25T00:25:23.652Z,13.52
2019-04-25T00:27:55.140Z,13.47
2019-04-25T00:30:28.226Z,13.46
2019-04-25T00:32:59.590Z,13.45
2019-04-25T00:35:31.588Z,13.34
2019-04-25T00:38:03.094Z,13.31
2019-04-25T00:40:34.608Z,13.27
2019-04-25T00:43:06.303Z,13.17
2019-04-25T00:45:37.757Z,13.20
2019-04-25T00:48:10.228Z,13.20
2019-04-25T00:50:43.268Z,13.11
2019-04-25T00:53:14.875Z,13.08
2019-04-25T00:55:46.467Z,13.05
2019-04-25T00:58:21.494Z,12.90
2019-04-25T01:00:57.834Z,12.90
2019-04-25T01:03:34.409Z,12.85
2019-04-25T01:06:05.925Z,12.83
2019-04-25T01:08:37.299Z,12.78
2019-04-25T01:11:08.797Z,12.74
2019-04-25T01:13:40.331Z,12.71
2019-04-25T01:16:12.077Z,12.65
2019-04-25T01:18:43.705Z,12.62
2019-04-25T01:21:15.374Z,12.65
2019-04-25T01:23:47.286Z,12.68
2019-04-25T01:26:18.688Z,12.65
2019-04-25T01:28:50.138Z,12.62
2019-04-25T01:31:23.309Z,12.61
2019-04-25T01:33:56.615Z,12.61
2019-04-25T01:36:36.027Z,12.59
2019-04-25T01:39:10.140Z,12.54
2019-04-25T01:41:44.128Z,12.54
2019-04-25T01:44:20.144Z,12.53
2019-04-25T01:46:51.874Z,12.53
2019-04-25T01:49:24.225Z,12.44
2019-04-25T01:51:57.464Z,12.43
2019-04-25T01:54:28.720Z,12.37
2019-04-25T01:57:00.482Z,12.34
2019-04-25T01:59:33.709Z,12.33
2019-04-25T02:02:07.180Z,12.34
2019-04-25T02:04:38.583Z,12.32
2019-04-25T02:07:10.275Z,12.19
2019-04-25T02:09:43.457Z,12.17
2019-04-25T02:12:20.223Z,12.07
2019-04-25T02:14:51.944Z,12.04
2019-04-25T02:17:24.169Z,12.07
2019-04-25T02:19:56.703Z,11.99
2019-04-25T02:22:28.556Z,12.02
2019-04-25T02:25:00.315Z,11.84
2019-04-25T02:27:31.919Z,11.87
2019-04-25T02:30:06.795Z,11.78
2019-04-25T02:32:37.451Z,11.71
2019-04-25T02:35:09.794Z,11.71
2019-04-25T02:37:41.433Z,11.67
2019-04-25T02:40:14.243Z,11.71
2019-04-25T02:42:45.836Z,11.75
2019-04-25T02:45:37.496Z,11.73
2019-04-25T02:48:19.622Z,11.74
2019-04-25T02:51:09.061Z,11.68
2019-04-25T02:53:44.492Z,11.69
2019-04-25T02:56:30.345Z,11.77
2019-04-25T02:58:48.994Z,11.84
2019-04-25T03:01:23.530Z,11.85
2019-04-25T03:03:54.560Z,11.81
2019-04-25T03:06:26.262Z,11.82
2019-04-25T03:08:58.187Z,11.96
2019-04-25T03:11:30.903Z,12.10
2019-04-25T03:14:02.380Z,12.14
2019-04-25T03:16:34.787Z,12.49
2019-04-25T03:19:20.223Z,12.64
2019-04-25T03:21:56.125Z,12.59
2019-04-25T03:24:27.717Z,12.99
2019-04-25T03:26:59.416Z,12.90
2019-04-25T03:29:30.964Z,12.93
2019-04-25T03:32:05.094Z,13.31
2019-04-25T03:34:35.544Z,13.45
2019-04-25T03:37:07.669Z,13.14
2019-04-25T03:39:39.180Z,13.36
2019-04-25T03:42:10.641Z,13.88
2019-04-25T03:44:43.701Z,14.16
2019-04-25T03:47:15.277Z,13.66
2019-04-25T03:49:46.729Z,13.79
2019-04-25T03:52:19.205Z,14.07
2019-04-25T03:54:50.664Z,13.62
2019-04-25T03:57:23.257Z,13.87
2019-04-25T03:59:54.987Z,13.77
2019-04-25T04:02:26.441Z,13.56
2019-04-25T04:04:57.890Z,13.25
2019-04-25T04:07:29.342Z,13.52
2019-04-25T04:10:00.895Z,13.63
2019-04-25T04:12:32.347Z,13.36
2019-04-25T04:15:07.027Z,13.77
2019-04-25T04:17:40.165Z,13.68
2019-04-25T04:20:14.691Z,13.61
2019-04-25T04:22:51.133Z,14.04
2019-04-25T04:25:23.613Z,13.68
2019-04-25T04:27:55.215Z,13.78
2019-04-25T04:30:26.672Z,13.80
2019-04-25T04:32:58.096Z,13.69
2019-04-25T04:35:29.831Z,14.12
2019-04-25T04:38:01.481Z,14.05
2019-04-25T04:40:34.440Z,14.35
2019-04-25T04:43:05.939Z,14.28
2019-04-25T04:45:37.394Z,14.19
2019-04-25T04:48:08.845Z,14.11
2019-04-25T04:50:40.301Z,14.24
2019-04-25T04:53:11.676Z,14.41
2019-04-25T04:55:43.588Z,14.68
2019-04-25T04:58:16.148Z,14.52
2019-04-25T05:00:48.192Z,14.33
2019-04-25T05:03:44.121Z,14.25
2019-04-25T05:06:24.012Z,14.14
2019-04-25T05:09:03.676Z,14.51
2019-04-25T05:11:35.144Z,14.43
2019-04-25T05:14:06.669Z,14.76
2019-04-25T05:16:38.121Z,14.84
2019-04-25T05:19:09.470Z,14.86
2019-04-25T05:21:40.973Z,14.85
2019-04-25T05:24:14.587Z,15.11
2019-04-25T05:26:46.916Z,15.17
2019-04-25T05:29:21.315Z,15.56
2019-04-25T05:31:54.256Z,15.67
2019-04-25T05:34:26.021Z,15.82
2019-04-25T05:36:57.579Z,15.99
2019-04-25T05:39:28.973Z,16.35
2019-04-25T05:42:22.520Z,16.40
2019-04-25T05:44:56.748Z,16.38
2019-04-25T05:47:29.332Z,16.38
2019-04-25T05:50:00.770Z,16.39
2019-04-25T05:52:33.768Z,16.18
2019-04-25T05:55:06.818Z,16.23
2019-04-25T05:57:47.698Z,16.59
2019-04-25T06:00:13.464Z,16.51
2019-04-25T06:02:46.211Z,16.42
2019-04-25T06:05:19.071Z,16.61
2019-04-25T06:07:50.504Z,16.70
2019-04-25T06:10:39.970Z,16.79
2019-04-25T06:13:13.781Z,16.85
2019-04-25T06:15:48.071Z,16.57
2019-04-25T06:18:21.264Z,16.88
2019-04-25T06:20:55.407Z,17.08
2019-04-25T06:23:45.750Z,17.21
2019-04-25T06:26:26.692Z,17.29
2019-04-25T06:28:57.018Z,17.24
2019-04-25T06:31:26.422Z,17.52
2019-04-25T06:33:56.122Z,17.27
2019-04-25T06:36:27.379Z,17.50
2019-04-25T06:38:58.826Z,17.58
2019-04-25T06:41:30.217Z,17.89
2019-04-25T06:44:04.067Z,17.71
2019-04-25T06:46:44.117Z,17.82
2019-04-25T06:49:27.811Z,18.15
2019-04-25T06:51:59.267Z,18.42
2019-04-25T06:54:31.574Z,18.61
2019-04-25T06:57:04.529Z,18.59
2019-04-25T06:59:39.538Z,18.41
2019-04-25T07:02:09.070Z,18.41
2019-04-25T07:04:40.573Z,18.56
2019-04-25T07:07:14.423Z,18.75
2019-04-25T07:09:45.504Z,18.75
2019-04-25T07:12:17.997Z,18.60
2019-04-25T07:14:50.141Z,18.79
2019-04-25T07:17:24.084Z,19.18
2019-04-25T07:19:55.918Z,19.35
2019-04-25T07:22:27.423Z,19.06
2019-04-25T07:24:58.921Z,19.26
2019-04-25T07:27:49.277Z,19.48
2019-04-25T07:30:49.017Z,19.53
2019-04-25T07:33:18.831Z,19.29
2019-04-25T07:35:50.442Z,19.45
2019-04-25T07:38:23.699Z,19.72
2019-04-25T07:40:55.139Z,19.77
2019-04-25T07:43:27.467Z,19.66
2019-04-25T07:45:59.181Z,19.70
2019-04-25T07:48:30.369Z,20.04
2019-04-25T07:51:03.622Z,20.22
2019-04-25T07:53:35.908Z,20.30
2019-04-25T07:56:08.350Z,20.39
2019-04-25T07:58:51.667Z,20.70
2019-04-25T08:01:15.980Z,20.79
2019-04-25T08:03:47.407Z,20.97
2019-04-25T08:06:18.871Z,20.91
2019-04-25T08:08:50.284Z,20.64
2019-04-25T08:11:21.715Z,20.84
2019-04-25T08:13:57.458Z,21.09
2019-04-25T08:16:39.830Z,21.13
2019-04-25T08:19:11.424Z,21.11
2019-04-25T08:21:43.980Z,21.19
2019-04-25T08:24:16.611Z,21.28
2019-04-25T08:26:48.055Z,21.38
2019-04-25T08:29:22.938Z,21.21
2019-04-25T08:31:53.637Z,21.24
2019-04-25T08:34:26.372Z,21.50
2019-04-25T08:36:57.920Z,21.53
2019-04-25T08:39:30.291Z,21.61
2019-04-25T08:42:03.475Z,21.72
2019-04-25T08:44:35.969Z,21.81
2019-04-25T08:47:08.285Z,21.93
2019-04-25T08:49:43.646Z,22.14
2019-04-25T08:52:14.765Z,22.03
2019-04-25T08:54:54.660Z,21.99
2019-04-25T08:57:45.031Z,22.16
2019-04-25T09:00:19.193Z,22.20
2019-04-25T09:02:55.093Z,22.00
2019-04-25T09:05:28.324Z,22.32
2019-04-25T09:07:59.102Z,22.19
2019-04-25T09:10:30.282Z,22.32
2019-04-25T09:13:03.188Z,22.32
2019-04-25T09:15:37.986Z,22.34
2019-04-25T09:18:09.519Z,22.45
2019-04-25T09:20:42.890Z,22.59
2019-04-25T09:23:13.780Z,22.60
2019-04-25T09:25:46.097Z,22.55
2019-04-25T09:28:18.153Z,22.52
2019-04-25T09:30:49.720Z,22.74
2019-04-25T09:33:21.204Z,22.92
2019-04-25T09:35:54.089Z,22.61
2019-04-25T09:38:25.639Z,22.79
2019-04-25T09:40:57.101Z,22.44
2019-04-25T09:43:28.609Z,22.50
2019-04-25T09:46:07.600Z,22.72
2019-04-25T09:48:46.933Z,22.80
2019-04-25T09:51:20.153Z,23.03
2019-04-25T09:53:54.165Z,23.15
2019-04-25T09:56:36.634Z,22.98
2019-04-25T09:59:13.774Z,22.77
2019-04-25T10:01:46.919Z,23.16
2019-04-25T10:04:17.928Z,23.31
2019-04-25T10:06:49.208Z,22.99
2019-04-25T10:09:21.005Z,23.16
2019-04-25T10:11:52.550Z,23.35
2019-04-25T10:14:37.505Z,23.52
2019-04-25T10:17:08.913Z,23.44
2019-04-25T10:19:41.173Z,23.36
2019-04-25T10:22:13.639Z,23.47
2019-04-25T10:24:58.351Z,23.49
2019-04-25T10:27:19.143Z,23.61
2019-04-25T10:29:53.681Z,23.54
2019-04-25T10:32:23.754Z,23.46
2019-04-25T10:34:55.040Z,23.49
2019-04-25T10:37:26.724Z,23.54
2019-04-25T10:39:58.362Z,23.51
2019-04-25T10:42:29.766Z,23.46
2019-04-25T10:45:01.116Z,23.40
2019-04-25T10:47:33.481Z,23.29
2019-04-25T10:50:08.009Z,23.27
2019-04-25T10:52:39.971Z,23.32
2019-04-25T10:55:12.162Z,23.26
2019-04-25T10:57:45.180Z,23.42
2019-04-25T11:00:24.063Z,23.49
2019-04-25T11:02:56.569Z,23.54
2019-04-25T11:05:27.486Z,23.47
2019-04-25T11:07:58.619Z,23.45
2019-04-25T11:10:31.132Z,23.49
2019-04-25T11:13:04.062Z,23.86
2019-04-25T11:15:35.838Z,23.89
2019-04-25T11:18:07.307Z,23.94
2019-04-25T11:20:39.157Z,23.75
2019-04-25T11:23:10.702Z,24.00
2019-04-25T11:25:43.530Z,23.93
2019-04-25T11:28:15.492Z,23.78
2019-04-25T11:30:47.812Z,23.78
2019-04-25T11:36:48.521Z,23.58
2019-04-25T11:39:21.662Z,23.58
2019-04-25T11:41:55.343Z,23.66
2019-04-25T11:44:26.735Z,23.63
2019-04-25T11:46:58.847Z,23.64
2019-04-25T11:49:30.885Z,23.82
2019-04-25T11:52:03.131Z,23.88
2019-04-25T11:54:36.357Z,23.74
2019-04-25T11:57:08.007Z,23.61
2019-04-25T11:59:39.440Z,23.58
2019-04-25T12:02:13.357Z,23.69
2019-04-25T12:04:46.423Z,23.84
2019-04-25T12:07:18.311Z,23.67
2019-04-25T12:09:50.018Z,23.69
2019-04-25T12:12:23.457Z,23.59
2019-04-25T12:14:55.288Z,23.53
2019-04-25T12:17:28.392Z,23.54
2019-04-25T12:19:59.804Z,23.77
2019-04-25T12:22:31.231Z,23.85
2019-04-25T12:25:04.524Z,23.86
2019-04-25T12:27:35.351Z,23.72
2019-04-25T12:30:07.273Z,23.66
2019-04-25T12:32:38.639Z,23.68
2019-04-25T12:35:09.975Z,23.76
2019-04-25T12:37:41.423Z,23.71
2019-04-25T12:40:14.135Z,23.78
2019-04-25T12:42:46.401Z,23.72
2019-04-25T12:45:25.752Z,23.54
2019-04-25T12:47:59.370Z,23.31
2019-04-25T12:50:33.549Z,23.34
2019-04-25T12:53:05.248Z,23.39
2019-04-25T12:55:36.889Z,23.51
2019-04-25T12:58:08.263Z,23.41
2019-04-25T13:00:47.953Z,23.48
2019-04-25T13:03:13.922Z,23.55
2019-04-25T13:05:44.849Z,23.58
2019-04-25T13:08:16.351Z,23.61
2019-04-25T13:10:48.072Z,23.73
2019-04-25T13:13:20.099Z,23.52
2019-04-25T13:15:53.186Z,23.55
2019-04-25T13:18:24.768Z,23.59
2019-04-25T13:20:57.519Z,23.52
2019-04-25T13:23:28.672Z,23.46
2019-04-25T13:25:59.898Z,23.58
2019-04-25T13:28:34.128Z,23.64
2019-04-25T13:31:12.135Z,23.70
2019-04-25T13:34:01.633Z,23.83
2019-04-25T13:36:34.651Z,23.72
2019-04-25T13:39:09.369Z,23.60
2019-04-25T13:41:43.063Z,23.49
2019-04-25T13:44:14.782Z,23.56
2019-04-25T13:46:46.015Z,23.56
2019-04-25T13:49:17.453Z,23.50
2019-04-25T13:51:48.912Z,23.56
2019-04-25T13:54:20.889Z,23.50
2019-04-25T13:56:53.477Z,23.73
2019-04-25T13:59:25.639Z,23.75
2019-04-25T14:01:58.965Z,23.59
2019-04-25T14:04:31.462Z,23.45
2019-04-25T14:07:03.046Z,23.54
2019-04-25T14:09:35.827Z,23.59
2019-04-25T14:12:07.981Z,23.45
2019-04-25T14:14:39.461Z,23.40
2019-04-25T14:17:13.876Z,23.31
2019-04-25T14:19:49.823Z,23.36
2019-04-25T14:22:22.231Z,23.34
2019-04-25T14:24:54.152Z,23.31
2019-04-25T14:27:26.425Z,23.34
2019-04-25T14:29:58.082Z,23.44
2019-04-25T14:32:30.137Z,23.53
2019-04-25T14:35:03.318Z,23.53
2019-04-25T14:37:39.696Z,23.36
2019-04-25T14:40:09.589Z,23.35
2019-04-25T14:42:40.850Z,23.29
2019-04-25T14:45:12.589Z,23.22
2019-04-25T14:47:44.006Z,23.12
2019-04-25T14:50:16.665Z,23.17
2019-04-25T14:52:48.209Z,23.04
2019-04-25T14:55:25.398Z,22.99
2019-04-25T14:57:57.812Z,23.03
2019-04-25T15:00:40.015Z,22.98
2019-04-25T15:03:11.595Z,22.94
2019-04-25T15:05:43.566Z,22.89
2019-04-25T15:08:15.259Z,22.86
2019-04-25T15:10:48.444Z,22.84
2019-04-25T15:13:19.086Z,22.80
2019-04-25T15:15:50.304Z,22.83
2019-04-25T15:18:22.411Z,22.91
2019-04-25T15:20:54.982Z,22.79
2019-04-25T15:23:27.302Z,22.71
2019-04-25T15:25:59.855Z,22.83
2019-04-25T15:28:31.267Z,22.69
2019-04-25T15:31:02.664Z,22.49
2019-04-25T15:33:34.166Z,22.39
2019-04-25T15:36:16.433Z,22.46
2019-04-25T15:38:55.267Z,22.40
2019-04-25T15:41:28.431Z,22.28
2019-04-25T15:44:09.891Z,22.25
2019-04-25T15:46:44.439Z,22.29
2019-04-25T15:49:15.111Z,22.21
2019-04-25T15:51:46.428Z,22.09
2019-04-25T15:54:17.829Z,22.01
2019-04-25T15:56:49.277Z,21.88
2019-04-25T15:59:20.884Z,21.72
2019-04-25T16:01:52.360Z,21.87
2019-04-25T16:04:23.936Z,21.76
2019-04-25T16:06:55.589Z,21.59
2019-04-25T16:09:27.987Z,21.65
2019-04-25T16:11:59.440Z,21.51
2019-04-25T16:14:31.349Z,21.44
2019-04-25T16:17:03.064Z,21.29
2019-04-25T16:19:34.801Z,21.42
2019-04-25T16:22:06.472Z,21.30
2019-04-25T16:24:37.896Z,21.17
2019-04-25T16:27:09.618Z,21.06
2019-04-25T16:29:41.001Z,20.95
2019-04-25T16:32:20.401Z,20.78
2019-04-25T16:34:47.182Z,20.76
2019-04-25T16:37:18.743Z,20.64
2019-04-25T16:39:50.193Z,20.59
2019-04-25T16:42:21.701Z,20.50
2019-04-25T16:44:53.300Z,20.44
2019-04-25T16:47:26.716Z,20.33
2019-04-25T16:49:57.631Z,20.23
2019-04-25T16:52:30.418Z,20.11
2019-04-25T16:55:01.782Z,20.04
2019-04-25T16:57:34.900Z,19.96
2019-04-25T17:00:09.938Z,20.07
2019-04-25T17:02:43.080Z,20.17
2019-04-25T17:05:14.727Z,20.07
2019-04-25T17:07:46.196Z,20.00
2019-04-25T17:10:18.214Z,19.89
2019-04-25T17:12:49.753Z,19.72
2019-04-25T17:15:30.496Z,19.75
2019-04-25T17:18:09.507Z,19.72
2019-04-25T17:20:45.679Z,19.61
2019-04-25T17:23:17.496Z,19.57
2019-04-25T17:25:49.019Z,19.64
2019-04-25T17:28:21.947Z,19.63
2019-04-25T17:30:57.727Z,19.54
2019-04-25T17:33:46.854Z,19.44
2019-04-25T17:36:20.078Z,19.44
2019-04-25T17:39:01.965Z,19.55
2019-04-25T17:41:34.534Z,19.57
2019-04-25T17:44:05.834Z,19.55
2019-04-25T17:46:37.564Z,19.51
2019-04-25T17:49:09.215Z,19.36
2019-04-25T17:51:44.032Z,19.39
2019-04-25T17:54:18.306Z,19.39
2019-04-25T17:56:48.221Z,19.29
2019-04-25T17:59:21.628Z,19.10
2019-04-25T18:01:53.750Z,19.06
2019-04-25T18:04:25.418Z,18.89
2019-04-25T18:06:57.088Z,18.70
2019-04-25T18:09:28.795Z,18.53
2019-04-25T18:12:00.453Z,18.36
2019-04-25T18:14:34.049Z,18.25
2019-04-25T18:17:06.734Z,18.24
2019-04-25T18:19:45.979Z,18.17
2019-04-25T18:22:25.097Z,18.09
2019-04-25T18:24:58.168Z,18.02
2019-04-25T18:27:31.185Z,17.98
2019-04-25T18:30:02.869Z,17.93
2019-04-25T18:32:37.046Z,17.87
2019-04-25T18:35:10.218Z,17.92
2019-04-25T18:37:52.405Z,17.83
2019-04-25T18:40:31.651Z,17.81
2019-04-25T18:43:19.846Z,17.77
2019-04-25T18:45:52.969Z,17.75
2019-04-25T18:48:24.445Z,17.77
2019-04-25T18:50:55.863Z,17.73
2019-04-25T18:53:28.969Z,17.78
2019-04-25T18:56:13.855Z,17.75
2019-04-25T18:59:04.058Z,17.82
2019-04-25T19:01:50.044Z,17.75
2019-04-25T19:04:25.844Z,17.75
2019-04-25T19:06:58.381Z,17.71
2019-04-25T19:09:30.830Z,17.62
2019-04-25T19:12:02.404Z,17.54
2019-04-25T19:14:33.976Z,17.45
2019-04-25T19:17:07.421Z,17.39
2019-04-25T19:19:39.752Z,17.37
2019-04-25T19:22:11.601Z,17.33
2019-04-25T19:24:45.012Z,17.38
2019-04-25T19:27:23.512Z,17.36
2019-04-25T19:29:52.086Z,17.33
2019-04-25T19:32:23.037Z,17.28
2019-04-25T19:34:54.604Z,17.19
2019-04-25T19:37:26.276Z,17.12
2019-04-25T19:40:15.483Z,17.03
2019-04-25T19:42:48.912Z,16.98
2019-04-25T19:45:19.695Z,16.88
2019-04-25T19:47:51.518Z,16.84
2019-04-25T19:50:23.069Z,16.78
2019-04-25T19:52:54.571Z,16.72
2019-04-25T19:55:25.937Z,16.58
2019-04-25T19:57:57.564Z,16.53
2019-04-25T20:00:29.146Z,16.53
2019-04-25T20:03:14.629Z,16.51
2019-04-25T20:06:04.239Z,16.49
2019-04-25T20:08:46.652Z,16.44
2019-04-25T20:11:26.025Z,16.40
2019-04-25T20:13:57.456Z,16.36
2019-04-25T20:16:30.560Z,16.44
2019-04-25T20:19:02.157Z,16.44
2019-04-25T20:21:33.668Z,16.42
2019-04-25T20:24:06.270Z,16.54
2019-04-25T20:26:39.328Z,16.59
2019-04-25T20:29:10.869Z,16.74
2019-04-25T20:31:42.231Z,16.77
2019-04-25T20:34:14.077Z,16.84
2019-04-25T20:36:46.144Z,16.74
2019-04-25T20:39:17.537Z,16.75
2019-04-25T20:41:49.750Z,16.66
2019-04-25T20:44:21.501Z,16.68
2019-04-25T20:46:53.068Z,16.77
2019-04-25T20:49:29.359Z,16.71
2019-04-25T20:52:01.082Z,16.54
2019-04-25T20:54:32.671Z,16.54
2019-04-25T20:57:04.346Z,16.47
2019-04-25T20:59:36.024Z,16.37
2019-04-25T21:02:09.357Z,16.27
2019-04-25T21:04:42.474Z,16.20
2019-04-25T21:07:13.976Z,16.14
2019-04-25T21:09:46.637Z,16.16
2019-04-25T21:12:18.113Z,16.25
2019-04-25T21:14:58.261Z,16.25
2019-04-25T21:17:31.500Z,16.15
2019-04-25T21:20:07.594Z,16.12
2019-04-25T21:22:38.966Z,16.09
2019-04-25T21:25:10.459Z,16.16
2019-04-25T21:27:41.876Z,16.26
2019-04-25T21:30:13.353Z,16.26
2019-04-25T21:32:53.325Z,16.25
2019-04-25T21:35:25.496Z,16.18
2019-04-25T21:37:57.533Z,16.01
2019-04-25T21:40:30.797Z,16.04
2019-04-25T21:43:09.899Z,16.05
2019-04-25T21:45:41.731Z,16.03
2019-04-25T21:48:13.449Z,16.00
2019-04-25T21:50:45.154Z,15.95
2019-04-25T21:53:16.552Z,15.92
2019-04-25T21:55:48.312Z,15.91
2019-04-25T21:58:20.068Z,15.90
2019-04-25T22:00:56.682Z,15.88
2019-04-25T22:03:29.796Z,15.89
2019-04-25T22:06:01.420Z,15.90
2019-04-25T22:08:32.960Z,15.80
2019-04-25T22:11:04.571Z,15.75
2019-04-25T22:13:37.063Z,15.71
2019-04-25T22:16:08.937Z,15.60
2019-04-25T22:18:40.594Z,15.56
2019-04-25T22:21:12.452Z,15.63
2019-04-25T22:23:44.383Z,15.56
2019-04-25T22:26:15.934Z,15.53
2019-04-25T22:28:47.769Z,15.63
2019-04-25T22:31:20.817Z,15.63
2019-04-25T22:34:12.045Z,15.64
2019-04-25T22:36:44.164Z,15.63
2019-04-25T22:39:15.878Z,15.58
2019-04-25T22:41:50.646Z,15.57
2019-04-25T22:44:22.338Z,15.57
2019-04-25T22:46:53.654Z,15.47
2019-04-25T22:49:24.883Z,15.45
2019-04-25T22:51:56.807Z,15.46
2019-04-25T22:54:29.553Z,15.51
2019-04-25T22:57:01.787Z,15.46
2019-04-25T22:59:34.453Z,15.46
2019-04-25T23:02:10.733Z,15.51
2019-04-25T23:04:50.990Z,15.48
2019-04-25T23:07:22.499Z,15.39
2019-04-25T23:09:54.567Z,15.38
2019-04-25T23:12:26.292Z,15.40
2019-04-25T23:14:59.156Z,15.37
2019-04-25T23:17:30.593Z,15.35
2019-04-25T23:20:03.361Z,15.32
2019-04-25T23:22:35.333Z,15.30
2019-04-25T23:25:09.933Z,15.27
2019-04-25T23:27:43.028Z,15.28
2019-04-25T23:30:16.382Z,15.28
2019-04-25T23:32:47.771Z,15.26
2019-04-25T23:35:27.941Z,15.21
2019-04-25T23:37:52.271Z,15.22
2019-04-25T23:40:23.755Z,15.16
2019-04-25T23:42:55.549Z,15.14
2019-04-25T23:45:27.000Z,15.15
2019-04-25T23:47:58.422Z,15.14
2019-04-25T23:50:30.180Z,15.13
2019-04-25T23:53:01.551Z,15.09
2019-04-25T23:55:33.111Z,15.07
2019-04-25T23:58:04.641Z,15.06
